createdAt,value
2022-11-06T00:00:30.026Z,6.40
2022-11-06T00:02:56.640Z,6.30
2022-11-06T00:05:42.016Z,6.30
2022-11-06T00:08:09.203Z,6.30
2022-11-06T00:10:35.961Z,6.30
2022-11-06T00:13:02.527Z,6.40
2022-11-06T00:15:29.074Z,6.40
2022-11-06T00:17:55.686Z,6.40
2022-11-06T00:20:22.249Z,6.40
2022-11-06T00:22:48.755Z,6.40
2022-11-06T00:25:15.540Z,6.40
2022-11-06T00:27:43.714Z,6.40
2022-11-06T00:30:11.272Z,6.40
2022-11-06T00:32:37.754Z,6.40
2022-11-06T00:35:04.268Z,6.30
2022-11-06T00:37:30.760Z,6.30
2022-11-06T00:39:57.321Z,6.40
2022-11-06T00:42:23.818Z,6.40
2022-11-06T00:44:50.317Z,6.40
2022-11-06T00:47:16.813Z,6.40
2022-11-06T00:49:43.316Z,6.30
2022-11-06T00:52:09.831Z,6.30
2022-11-06T00:54:36.345Z,6.40
2022-11-06T00:57:02.923Z,6.40
2022-11-06T00:59:29.423Z,6.40
2022-11-06T01:01:55.987Z,6.30
2022-11-06T01:04:22.597Z,6.40
2022-11-06T01:06:49.117Z,6.40
2022-11-06T01:09:15.608Z,6.40
2022-11-06T01:12:11.150Z,6.40
2022-11-06T01:14:28.609Z,6.40
2022-11-06T01:16:55.222Z,6.40
2022-11-06T01:19:21.780Z,6.40
2022-11-06T01:21:48.277Z,6.40
2022-11-06T01:24:14.837Z,6.30
2022-11-06T01:26:58.441Z,6.40
2022-11-06T01:29:27.887Z,6.40
2022-11-06T01:31:54.359Z,6.40
2022-11-06T01:34:21.132Z,6.40
2022-11-06T01:36:47.688Z,6.40
2022-11-06T01:39:14.385Z,6.40
2022-11-06T01:41:40.869Z,6.40
2022-11-06T01:44:09.760Z,6.40
2022-11-06T01:46:36.525Z,6.30
2022-11-06T01:49:04.740Z,6.30
2022-11-06T01:51:31.283Z,6.30
2022-11-06T01:53:57.764Z,6.30
2022-11-06T01:56:24.326Z,6.30
2022-11-06T01:58:50.807Z,6.30
2022-11-06T02:01:17.343Z,6.30
2022-11-06T02:03:43.819Z,6.20
2022-11-06T02:06:10.301Z,6.30
2022-11-06T02:08:36.784Z,6.30
2022-11-06T02:11:03.259Z,6.20
2022-11-06T02:13:29.759Z,6.20
2022-11-06T02:15:56.289Z,6.20
2022-11-06T02:18:23.888Z,6.20
2022-11-06T02:20:50.387Z,6.20
2022-11-06T02:23:16.866Z,6.20
2022-11-06T02:25:43.401Z,6.10
2022-11-06T02:28:10.046Z,6.10
2022-11-06T02:30:36.708Z,6.10
2022-11-06T02:33:03.192Z,6.10
2022-11-06T02:35:29.895Z,6.10
2022-11-06T02:37:56.425Z,6.10
2022-11-06T02:40:22.994Z,6.10
2022-11-06T02:42:49.501Z,6.10
2022-11-06T02:45:21.181Z,6.10
2022-11-06T02:47:47.942Z,6.10
2022-11-06T02:50:14.465Z,6.10
2022-11-06T02:52:40.941Z,6.10
2022-11-06T02:55:07.577Z,6.10
2022-11-06T02:57:35.497Z,6.00
2022-11-06T03:00:02.443Z,6.10
2022-11-06T03:02:29.136Z,6.10
2022-11-06T03:04:55.758Z,6.00
2022-11-06T03:07:22.292Z,6.00
2022-11-06T03:09:48.778Z,6.10
2022-11-06T03:12:15.256Z,6.10
2022-11-06T03:14:41.787Z,6.00
2022-11-06T03:17:08.283Z,6.00
2022-11-06T03:19:34.782Z,6.00
2022-11-06T03:22:01.261Z,6.00
2022-11-06T03:24:30.995Z,6.00
2022-11-06T03:26:57.792Z,6.00
2022-11-06T03:29:24.286Z,6.00
2022-11-06T03:31:50.818Z,6.00
2022-11-06T03:34:17.413Z,6.10
2022-11-06T03:36:43.935Z,6.10
2022-11-06T03:39:10.451Z,6.10
2022-11-06T03:41:38.584Z,6.10
2022-11-06T03:44:05.060Z,6.10
2022-11-06T03:46:31.575Z,6.10
2022-11-06T03:48:58.038Z,6.10
2022-11-06T03:51:24.564Z,6.20
2022-11-06T03:53:51.039Z,6.10
2022-11-06T03:56:17.621Z,6.20
2022-11-06T03:58:44.158Z,6.20
2022-11-06T04:01:10.771Z,6.20
2022-11-06T04:03:37.263Z,6.20
2022-11-06T04:06:03.776Z,6.20
2022-11-06T04:08:49.055Z,6.20
2022-11-06T04:11:50.942Z,6.20
2022-11-06T04:14:17.446Z,6.20
2022-11-06T04:16:43.992Z,6.20
2022-11-06T04:19:10.601Z,6.20
2022-11-06T04:21:37.090Z,6.20
2022-11-06T04:24:22.305Z,6.20
2022-11-06T04:26:48.836Z,6.20
2022-11-06T04:29:15.324Z,6.20
2022-11-06T04:31:41.830Z,6.20
2022-11-06T04:34:08.325Z,6.20
2022-11-06T04:36:34.824Z,6.20
2022-11-06T04:39:01.680Z,6.20
2022-11-06T04:41:34.296Z,6.20
2022-11-06T04:44:00.846Z,6.20
2022-11-06T04:46:27.363Z,6.20
2022-11-06T04:48:53.883Z,6.20
2022-11-06T04:51:20.476Z,6.20
2022-11-06T04:53:46.947Z,6.20
2022-11-06T04:56:15.529Z,6.20
2022-11-06T04:58:44.060Z,6.20
2022-11-06T05:01:10.606Z,6.20
2022-11-06T05:03:37.153Z,6.20
2022-11-06T05:06:03.657Z,6.20
2022-11-06T05:08:30.135Z,6.20
2022-11-06T05:10:56.635Z,6.10
2022-11-06T05:13:23.141Z,6.10
2022-11-06T05:15:49.670Z,6.20
2022-11-06T05:18:16.696Z,6.10
2022-11-06T05:20:43.650Z,6.10
2022-11-06T05:23:10.217Z,6.10
2022-11-06T05:25:36.897Z,6.20
2022-11-06T05:28:06.511Z,6.20
2022-11-06T05:30:33.069Z,6.20
2022-11-06T05:32:59.641Z,6.20
2022-11-06T05:35:26.193Z,6.20
2022-11-06T05:37:52.761Z,6.20
2022-11-06T05:40:19.440Z,6.20
2022-11-06T05:42:46.093Z,6.20
2022-11-06T05:45:12.700Z,6.20
2022-11-06T05:47:39.402Z,6.20
2022-11-06T05:50:06.007Z,6.20
2022-11-06T05:52:32.654Z,6.20
2022-11-06T05:54:59.199Z,6.20
2022-11-06T05:57:25.698Z,6.20
2022-11-06T05:59:52.171Z,6.20
2022-11-06T06:02:18.797Z,6.20
2022-11-06T06:04:45.382Z,6.20
2022-11-06T06:07:11.897Z,6.20
2022-11-06T06:09:38.390Z,6.20
2022-11-06T06:12:04.882Z,6.20
2022-11-06T06:14:31.423Z,6.10
2022-11-06T06:16:57.948Z,6.20
2022-11-06T06:19:24.475Z,6.20
2022-11-06T06:21:50.967Z,6.20
2022-11-06T06:24:17.525Z,6.10
2022-11-06T06:26:44.050Z,6.10
2022-11-06T06:29:10.595Z,6.10
2022-11-06T06:31:37.063Z,6.10
2022-11-06T06:34:03.563Z,6.10
2022-11-06T06:36:30.053Z,6.10
2022-11-06T06:38:56.595Z,6.10
2022-11-06T06:41:23.137Z,6.10
2022-11-06T06:43:49.646Z,6.10
2022-11-06T06:46:16.167Z,6.10
2022-11-06T06:48:42.648Z,6.10
2022-11-06T06:51:09.174Z,6.10
2022-11-06T06:53:35.944Z,6.20
2022-11-06T06:56:02.442Z,6.20
2022-11-06T06:58:28.917Z,6.20
2022-11-06T07:00:55.689Z,6.20
2022-11-06T07:03:22.320Z,6.30
2022-11-06T07:05:48.833Z,6.30
2022-11-06T07:08:15.586Z,6.30
2022-11-06T07:10:42.354Z,6.30
2022-11-06T07:13:08.820Z,6.40
2022-11-06T07:15:35.304Z,6.40
2022-11-06T07:18:01.911Z,6.40
2022-11-06T07:20:28.414Z,6.40
2022-11-06T07:22:55.010Z,6.40
2022-11-06T07:25:21.478Z,6.50
2022-11-06T07:27:47.965Z,6.50
2022-11-06T07:30:14.457Z,6.60
2022-11-06T07:32:40.945Z,6.60
2022-11-06T07:35:07.463Z,6.70
2022-11-06T07:37:33.939Z,6.70
2022-11-06T07:40:00.831Z,6.70
2022-11-06T07:42:27.351Z,6.80
2022-11-06T07:44:55.369Z,6.80
2022-11-06T07:47:21.859Z,6.90
2022-11-06T07:49:51.074Z,6.90
2022-11-06T07:52:17.863Z,7.00
2022-11-06T07:54:44.432Z,7.00
2022-11-06T07:57:10.918Z,7.00
2022-11-06T07:59:37.391Z,7.00
2022-11-06T08:02:03.953Z,7.00
2022-11-06T08:04:30.736Z,7.10
2022-11-06T08:06:57.274Z,7.10
2022-11-06T08:09:25.049Z,7.20
2022-11-06T08:11:51.559Z,7.20
2022-11-06T08:14:18.046Z,7.30
2022-11-06T08:16:44.525Z,7.30
2022-11-06T08:19:11.041Z,7.40
2022-11-06T08:21:37.531Z,7.40
2022-11-06T08:24:04.567Z,7.40
2022-11-06T08:26:31.778Z,7.50
2022-11-06T08:28:58.275Z,7.50
2022-11-06T08:31:24.865Z,7.60
2022-11-06T08:33:51.382Z,7.70
2022-11-06T08:36:17.874Z,7.70
2022-11-06T08:38:44.535Z,7.80
2022-11-06T08:41:11.000Z,7.90
2022-11-06T08:43:37.496Z,8.00
2022-11-06T08:46:04.565Z,8.10
2022-11-06T08:48:32.176Z,8.00
2022-11-06T08:50:58.961Z,8.20
2022-11-06T08:53:25.534Z,8.20
2022-11-06T08:55:52.320Z,8.20
2022-11-06T08:58:18.901Z,8.20
2022-11-06T09:00:45.451Z,8.30
2022-11-06T09:03:12.459Z,8.30
2022-11-06T09:05:39.197Z,8.40
2022-11-06T09:08:05.750Z,8.40
2022-11-06T09:10:32.213Z,8.40
2022-11-06T09:12:58.728Z,8.50
2022-11-06T09:15:25.288Z,8.60
2022-11-06T09:17:51.784Z,8.60
2022-11-06T09:20:18.947Z,8.70
2022-11-06T09:22:45.446Z,8.80
2022-11-06T09:25:12.103Z,8.90
2022-11-06T09:27:38.615Z,8.90
2022-11-06T09:30:05.135Z,8.90
2022-11-06T09:32:31.715Z,8.90
2022-11-06T09:34:58.708Z,8.80
2022-11-06T09:37:25.184Z,8.90
2022-11-06T09:39:51.750Z,9.00
2022-11-06T09:42:18.246Z,9.10
2022-11-06T09:44:44.792Z,9.00
2022-11-06T09:47:11.277Z,9.10
2022-11-06T09:49:37.935Z,9.10
2022-11-06T09:52:04.469Z,9.00
2022-11-06T09:54:31.090Z,9.00
2022-11-06T09:56:57.791Z,9.00
2022-11-06T09:59:24.301Z,9.10
2022-11-06T10:01:50.980Z,9.20
2022-11-06T10:04:17.648Z,9.20
2022-11-06T10:06:44.154Z,9.30
2022-11-06T10:09:10.674Z,9.40
2022-11-06T10:11:37.170Z,9.60
2022-11-06T10:14:04.014Z,9.70
2022-11-06T10:16:30.522Z,9.70
2022-11-06T10:18:57.067Z,9.70
2022-11-06T10:21:23.982Z,9.70
2022-11-06T10:23:50.520Z,9.70
2022-11-06T10:26:17.278Z,9.70
2022-11-06T10:28:43.846Z,9.70
2022-11-06T10:31:10.417Z,9.60
2022-11-06T10:33:37.183Z,9.60
2022-11-06T10:36:03.652Z,9.50
2022-11-06T10:38:31.206Z,9.50
2022-11-06T10:40:57.709Z,9.60
2022-11-06T10:43:24.199Z,9.70
2022-11-06T10:45:50.764Z,9.80
2022-11-06T10:48:17.258Z,9.90
2022-11-06T10:50:43.726Z,9.90
2022-11-06T10:53:10.641Z,10.00
2022-11-06T10:55:37.264Z,10.10
2022-11-06T10:58:03.764Z,10.40
2022-11-06T11:00:31.093Z,10.60
2022-11-06T11:02:57.579Z,11.00
2022-11-06T11:05:24.261Z,11.30
2022-11-06T11:07:51.053Z,11.30
2022-11-06T11:10:17.551Z,11.30
2022-11-06T11:12:44.027Z,11.40
2022-11-06T11:15:10.678Z,11.30
2022-11-06T11:17:37.151Z,11.10
2022-11-06T11:20:03.656Z,11.00
2022-11-06T11:22:33.094Z,11.00
2022-11-06T11:25:00.711Z,11.10
2022-11-06T11:27:27.223Z,11.00
2022-11-06T11:29:53.755Z,10.90
2022-11-06T11:32:20.244Z,11.00
2022-11-06T11:34:51.429Z,10.90
2022-11-06T11:37:20.501Z,10.90
2022-11-06T11:39:46.985Z,10.80
2022-11-06T11:42:13.538Z,10.70
2022-11-06T11:44:40.028Z,10.50
2022-11-06T11:47:09.175Z,10.40
2022-11-06T11:49:35.800Z,10.30
2022-11-06T11:52:02.286Z,10.30
2022-11-06T11:54:29.026Z,10.20
2022-11-06T11:57:05.282Z,10.20
2022-11-06T11:59:33.047Z,10.20
2022-11-06T12:01:59.738Z,10.10
2022-11-06T12:04:26.302Z,10.10
2022-11-06T12:06:52.783Z,10.10
2022-11-06T12:09:19.270Z,10.10
2022-11-06T12:11:45.784Z,10.20
2022-11-06T12:14:12.291Z,10.30
2022-11-06T12:16:38.790Z,10.30
2022-11-06T12:19:05.285Z,10.40
2022-11-06T12:21:31.821Z,10.40
2022-11-06T12:23:58.348Z,10.40
2022-11-06T12:26:24.880Z,10.60
2022-11-06T12:28:51.400Z,10.60
2022-11-06T12:31:17.994Z,10.60
2022-11-06T12:34:05.673Z,10.60
2022-11-06T12:36:34.620Z,10.60
2022-11-06T12:39:01.148Z,10.70
2022-11-06T12:41:27.702Z,10.60
2022-11-06T12:43:56.102Z,10.60
2022-11-06T12:46:22.630Z,10.50
2022-11-06T12:48:49.167Z,10.40
2022-11-06T12:51:15.652Z,10.40
2022-11-06T12:53:42.125Z,10.30
2022-11-06T12:56:08.644Z,10.30
2022-11-06T12:58:35.143Z,10.30
2022-11-06T13:01:01.780Z,10.30
2022-11-06T13:03:28.403Z,10.40
2022-11-06T13:05:54.895Z,10.40
2022-11-06T13:08:21.410Z,10.50
2022-11-06T13:10:47.924Z,10.40
2022-11-06T13:13:15.375Z,10.30
2022-11-06T13:15:42.041Z,10.30
2022-11-06T13:18:08.655Z,10.30
2022-11-06T13:20:35.192Z,10.30
2022-11-06T13:23:01.771Z,10.40
2022-11-06T13:25:28.294Z,10.30
2022-11-06T13:27:54.779Z,10.40
2022-11-06T13:30:21.272Z,10.30
2022-11-06T13:32:53.531Z,10.30
2022-11-06T13:35:20.359Z,10.30
2022-11-06T13:37:46.906Z,10.40
2022-11-06T13:40:13.409Z,10.40
2022-11-06T13:42:39.906Z,10.40
2022-11-06T13:45:06.523Z,10.30
2022-11-06T13:47:33.186Z,10.30
2022-11-06T13:49:59.739Z,10.30
2022-11-06T13:52:26.246Z,10.30
2022-11-06T13:54:52.787Z,10.30
2022-11-06T13:57:19.270Z,10.30
2022-11-06T13:59:45.829Z,10.30
2022-11-06T14:02:12.452Z,10.30
2022-11-06T14:04:40.959Z,10.30
2022-11-06T14:07:07.593Z,10.30
2022-11-06T14:09:34.140Z,10.40
2022-11-06T14:12:00.648Z,10.40
2022-11-06T14:14:27.328Z,10.40
2022-11-06T14:16:53.827Z,10.40
2022-11-06T14:19:20.352Z,10.40
2022-11-06T14:21:47.061Z,10.40
2022-11-06T14:24:13.551Z,10.40
2022-11-06T14:26:40.150Z,10.40
2022-11-06T14:29:06.767Z,10.40
2022-11-06T14:31:33.273Z,10.30
2022-11-06T14:33:59.889Z,10.40
2022-11-06T14:36:26.469Z,10.30
2022-11-06T14:38:53.033Z,10.30
2022-11-06T14:41:19.555Z,10.30
2022-11-06T14:43:46.116Z,10.30
2022-11-06T14:46:12.655Z,10.30
2022-11-06T14:48:39.194Z,10.30
2022-11-06T14:51:05.787Z,10.30
2022-11-06T14:53:32.328Z,10.20
2022-11-06T14:55:58.913Z,10.10
2022-11-06T14:58:25.539Z,10.10
2022-11-06T15:00:52.235Z,10.10
2022-11-06T15:03:18.859Z,10.00
2022-11-06T15:05:51.056Z,10.00
2022-11-06T15:08:18.965Z,9.90
2022-11-06T15:10:45.727Z,9.90
2022-11-06T15:13:12.710Z,9.90
2022-11-06T15:15:39.589Z,9.80
2022-11-06T15:18:06.159Z,9.80
2022-11-06T15:20:32.731Z,9.70
2022-11-06T15:22:59.214Z,9.70
2022-11-06T15:25:27.377Z,9.70
2022-11-06T15:27:53.904Z,9.70
2022-11-06T15:30:20.402Z,9.60
2022-11-06T15:32:46.902Z,9.60
2022-11-06T15:35:13.528Z,9.60
2022-11-06T15:37:40.170Z,9.50
2022-11-06T15:40:06.790Z,9.50
2022-11-06T15:42:33.426Z,9.50
2022-11-06T15:45:00.035Z,9.50
2022-11-06T15:47:26.674Z,9.50
2022-11-06T15:49:53.224Z,9.50
2022-11-06T15:52:20.111Z,9.50
2022-11-06T15:54:48.716Z,9.40
2022-11-06T15:57:15.485Z,9.40
2022-11-06T15:59:41.982Z,9.40
2022-11-06T16:02:08.535Z,9.40
2022-11-06T16:04:35.237Z,9.40
2022-11-06T16:07:01.831Z,9.30
2022-11-06T16:09:28.417Z,9.30
2022-11-06T16:11:54.926Z,9.40
2022-11-06T16:14:22.188Z,9.40
2022-11-06T16:16:48.810Z,9.30
2022-11-06T16:19:15.321Z,9.40
2022-11-06T16:21:41.858Z,9.40
2022-11-06T16:24:08.429Z,9.40
2022-11-06T16:26:35.573Z,9.40
2022-11-06T16:29:02.225Z,9.40
2022-11-06T16:31:29.074Z,9.40
2022-11-06T16:33:55.969Z,9.30
2022-11-06T16:36:22.526Z,9.30
2022-11-06T16:38:49.012Z,9.30
2022-11-06T16:41:35.627Z,9.30
2022-11-06T16:44:02.135Z,9.30
2022-11-06T16:46:28.635Z,9.30
2022-11-06T16:48:55.216Z,9.20
2022-11-06T16:51:21.794Z,9.20
2022-11-06T16:53:48.381Z,9.20
2022-11-06T16:56:15.181Z,9.10
2022-11-06T16:58:41.703Z,9.10
2022-11-06T17:01:08.209Z,9.10
2022-11-06T17:03:34.921Z,9.10
2022-11-06T17:06:01.435Z,9.00
2022-11-06T17:08:28.009Z,9.00
2022-11-06T17:10:54.502Z,8.90
2022-11-06T17:13:21.037Z,8.80
2022-11-06T17:15:47.683Z,8.70
2022-11-06T17:18:14.809Z,8.60
2022-11-06T17:20:41.282Z,8.60
2022-11-06T17:23:11.153Z,8.50
2022-11-06T17:25:40.148Z,8.40
2022-11-06T17:28:06.832Z,8.40
2022-11-06T17:30:33.333Z,8.30
2022-11-06T17:32:59.848Z,8.20
2022-11-06T17:35:26.428Z,8.20
2022-11-06T17:37:52.917Z,8.10
2022-11-06T17:40:19.527Z,8.00
2022-11-06T17:42:46.107Z,8.00
2022-11-06T17:45:12.639Z,8.00
2022-11-06T17:47:39.215Z,8.00
2022-11-06T17:50:05.716Z,7.90
2022-11-06T17:52:32.299Z,7.90
2022-11-06T17:54:58.872Z,7.90
2022-11-06T17:57:25.380Z,7.90
2022-11-06T17:59:51.962Z,7.90
2022-11-06T18:02:35.004Z,7.80
2022-11-06T18:05:05.073Z,7.80
2022-11-06T18:07:31.666Z,7.80
2022-11-06T18:09:58.162Z,7.80
2022-11-06T18:12:27.421Z,7.80
2022-11-06T18:14:54.060Z,7.70
2022-11-06T18:17:20.655Z,7.70
2022-11-06T18:19:47.167Z,7.70
2022-11-06T18:22:14.744Z,7.70
2022-11-06T18:24:41.483Z,7.70
2022-11-06T18:27:07.955Z,7.70
2022-11-06T18:29:34.630Z,7.70
2022-11-06T18:32:01.151Z,7.70
2022-11-06T18:34:27.787Z,7.70
2022-11-06T18:36:54.597Z,7.60
2022-11-06T18:39:21.100Z,7.70
2022-11-06T18:41:47.737Z,7.70
2022-11-06T18:44:14.282Z,7.70
2022-11-06T18:46:40.992Z,7.70
2022-11-06T18:49:07.497Z,7.70
2022-11-06T18:51:36.092Z,7.70
2022-11-06T18:54:04.468Z,7.70
2022-11-06T18:56:31.117Z,7.70
2022-11-06T18:58:58.560Z,7.70
2022-11-06T19:01:25.807Z,7.70
2022-11-06T19:03:52.529Z,7.60
2022-11-06T19:06:19.042Z,7.70
2022-11-06T19:08:45.565Z,7.70
2022-11-06T19:11:12.096Z,7.70
2022-11-06T19:13:42.028Z,7.70
2022-11-06T19:16:12.232Z,7.70
2022-11-06T19:18:39.007Z,7.80
2022-11-06T19:21:05.614Z,7.80
2022-11-06T19:23:32.125Z,7.80
2022-11-06T19:26:17.520Z,7.80
2022-11-06T19:28:45.164Z,7.90
2022-11-06T19:31:12.950Z,7.90
2022-11-06T19:33:39.530Z,7.90
2022-11-06T19:36:06.029Z,8.00
2022-11-06T19:38:32.572Z,8.00
2022-11-06T19:41:00.092Z,8.00
2022-11-06T19:43:26.599Z,8.00
2022-11-06T19:45:53.213Z,8.00
2022-11-06T19:48:19.728Z,8.00
2022-11-06T19:50:59.226Z,8.00
2022-11-06T19:53:26.084Z,8.00
2022-11-06T19:55:52.804Z,8.00
2022-11-06T19:58:19.364Z,8.00
2022-11-06T20:00:45.858Z,8.00
2022-11-06T20:03:12.726Z,8.00
2022-11-06T20:05:39.576Z,8.00
2022-11-06T20:08:06.110Z,8.00
2022-11-06T20:10:32.717Z,8.00
2022-11-06T20:12:59.220Z,8.00
2022-11-06T20:15:25.840Z,8.00
2022-11-06T20:17:52.564Z,8.00
2022-11-06T20:20:19.083Z,8.00
2022-11-06T20:22:45.595Z,8.00
2022-11-06T20:25:12.179Z,8.10
2022-11-06T20:27:38.713Z,8.10
2022-11-06T20:30:05.230Z,8.10
2022-11-06T20:32:31.846Z,8.10
2022-11-06T20:34:58.366Z,8.20
2022-11-06T20:37:25.022Z,8.20
2022-11-06T20:39:52.043Z,8.20
2022-11-06T20:42:18.863Z,8.30
2022-11-06T20:44:45.347Z,8.30
2022-11-06T20:47:11.833Z,8.30
2022-11-06T20:49:38.312Z,8.30
2022-11-06T20:52:19.331Z,8.30
2022-11-06T20:54:47.733Z,8.40
2022-11-06T20:57:14.683Z,8.40
2022-11-06T20:59:41.173Z,8.40
2022-11-06T21:02:07.907Z,8.40
2022-11-06T21:04:34.558Z,8.40
2022-11-06T21:07:01.136Z,8.40
2022-11-06T21:09:27.773Z,8.40
2022-11-06T21:11:54.273Z,8.40
2022-11-06T21:14:20.793Z,8.40
2022-11-06T21:16:47.364Z,8.40
2022-11-06T21:19:13.884Z,8.40
2022-11-06T21:21:40.447Z,8.40
2022-11-06T21:24:07.019Z,8.40
2022-11-06T21:26:33.567Z,8.40
2022-11-06T21:29:00.251Z,8.40
2022-11-06T21:31:27.041Z,8.40
2022-11-06T21:33:53.538Z,8.40
2022-11-06T21:36:20.062Z,8.40
2022-11-06T21:38:46.615Z,8.40
2022-11-06T21:41:13.248Z,8.40
2022-11-06T21:43:39.746Z,8.40
2022-11-06T21:46:06.346Z,8.40
2022-11-06T21:48:45.868Z,8.40
2022-11-06T21:51:13.175Z,8.40
2022-11-06T21:53:58.668Z,8.50
2022-11-06T21:56:26.308Z,8.50
2022-11-06T21:58:52.866Z,8.40
2022-11-06T22:01:19.482Z,8.40
2022-11-06T22:03:46.037Z,8.40
2022-11-06T22:06:12.564Z,8.50
2022-11-06T22:08:39.153Z,8.50
2022-11-06T22:11:05.647Z,8.50
2022-11-06T22:13:32.152Z,8.50
2022-11-06T22:15:58.619Z,8.50
2022-11-06T22:18:25.129Z,8.50
2022-11-06T22:20:51.670Z,8.50
2022-11-06T22:23:18.210Z,8.50
2022-11-06T22:25:44.736Z,8.50
2022-11-06T22:28:11.216Z,8.50
2022-11-06T22:30:37.722Z,8.40
2022-11-06T22:33:04.425Z,8.40
2022-11-06T22:35:30.976Z,8.40
2022-11-06T22:37:57.534Z,8.40
2022-11-06T22:40:24.162Z,8.40
2022-11-06T22:42:51.728Z,8.40
2022-11-06T22:45:18.527Z,8.40
2022-11-06T22:47:46.440Z,8.40
2022-11-06T22:50:12.939Z,8.40
2022-11-06T22:52:39.453Z,8.40
2022-11-06T22:55:06.037Z,8.50
2022-11-06T22:57:32.552Z,8.50
2022-11-06T22:59:59.118Z,8.50
2022-11-06T23:02:25.933Z,8.50
2022-11-06T23:04:52.564Z,8.50
2022-11-06T23:07:19.071Z,8.50
2022-11-06T23:09:45.665Z,8.50
2022-11-06T23:12:13.728Z,8.50
2022-11-06T23:14:40.278Z,8.50
2022-11-06T23:17:06.846Z,8.50
2022-11-06T23:19:33.537Z,8.50
2022-11-06T23:22:18.831Z,8.50
2022-11-06T23:24:45.433Z,8.60
2022-11-06T23:27:12.159Z,8.60
2022-11-06T23:29:38.734Z,8.60
2022-11-06T23:32:05.307Z,8.60
2022-11-06T23:34:31.837Z,8.60
2022-11-06T23:36:58.644Z,8.60
2022-11-06T23:39:25.191Z,8.60
2022-11-06T23:41:51.806Z,8.60
2022-11-06T23:44:37.318Z,8.60
2022-11-06T23:47:03.834Z,8.60
2022-11-06T23:49:30.344Z,8.70
2022-11-06T23:51:56.915Z,8.70
2022-11-06T23:54:23.570Z,8.70
2022-11-06T23:56:50.092Z,8.70
2022-11-06T23:59:16.654Z,8.80
